Terminal Aerodrome Forecast
Issued by NWS

Home | Current Version | Previous Version | Text Only | Print | Product List | Glossary On
Versions: 1 2 3 4 5 6 7 8 9 10 11 12 13 14 15 16 17
000
FTUS45 KABQ 301300 AAA
TAFSAF
TAF AMD
KSAF 301353Z 3014/3112 13008KT P6SM SCT015 OVC035
      TEMPO 3015/3018 2SM -SN BR OVC009
     FM301800 13011G18KT 2SM -SN SCT005 BKN010
     FM302200 12009KT 4SM -SN BR SCT005 BKN010
     FM310300 13010KT 2SM -SN BR BKN005=

USA.gov is the U.S. government's official web portal to all federal, state and local government web resources and services.